createdAt,value
2018-07-06T00:00:07.343Z,28.6
2018-07-06T00:06:01.460Z,28.6
2018-07-06T00:08:58.226Z,28.7
2018-07-06T00:11:55.415Z,28.7
2018-07-06T00:14:52.241Z,28.7
2018-07-06T00:26:40.492Z,28.8
2018-07-06T00:29:37.210Z,28.8
2018-07-06T00:38:28.433Z,28.8
2018-07-06T00:41:25.218Z,28.8
2018-07-06T00:47:19.478Z,28.8
2018-07-06T00:50:16.276Z,28.9
2018-07-06T00:53:13.332Z,28.9
2018-07-06T00:56:10.310Z,29
2018-07-06T00:59:07.522Z,28.9
2018-07-06T01:02:04.238Z,28.9
2018-07-06T01:05:01.452Z,29
2018-07-06T01:07:58.265Z,29
2018-07-06T01:10:55.455Z,29
2018-07-06T01:13:52.320Z,29
2018-07-06T01:16:49.519Z,29
2018-07-06T01:19:46.282Z,29
2018-07-06T01:28:37.405Z,29
2018-07-06T01:31:34.368Z,29.1
2018-07-06T01:34:31.489Z,29.2
2018-07-06T01:37:28.306Z,29.2
2018-07-06T01:40:25.398Z,29.2
2018-07-06T01:43:22.367Z,29.2
2018-07-06T01:49:16.411Z,29.2
2018-07-06T01:52:13.401Z,29.2
2018-07-06T01:58:07.578Z,29.3
2018-07-06T02:06:58.594Z,29.4
2018-07-06T02:12:52.643Z,29.4
2018-07-06T02:15:49.429Z,29.6
2018-07-06T02:18:46.629Z,29.7
2018-07-06T02:21:43.436Z,29.6
2018-07-06T02:30:34.422Z,29.4
2018-07-06T02:39:25.621Z,29.7
2018-07-06T02:51:13.638Z,29.7
2018-07-06T02:54:10.469Z,29.6
2018-07-06T02:57:07.526Z,29.6
2018-07-06T03:00:04.411Z,29.5
2018-07-06T03:05:58.677Z,28.9
2018-07-06T03:08:55.502Z,28.8
2018-07-06T03:11:52.523Z,28.8
2018-07-06T03:14:49.514Z,28.8
2018-07-06T03:17:46.728Z,28.8
2018-07-06T03:20:43.499Z,28.9
2018-07-06T03:23:40.653Z,29.1
2018-07-06T03:26:37.529Z,29.3
2018-07-06T03:29:34.693Z,29.4
2018-07-06T03:32:31.453Z,29.4
2018-07-06T03:35:28.693Z,29.3
2018-07-06T03:38:25.483Z,29.2
2018-07-06T03:47:16.687Z,29.1
2018-07-06T03:50:13.553Z,29.1
2018-07-06T03:53:10.573Z,29
2018-07-06T03:59:04.708Z,29
2018-07-06T04:02:01.558Z,29
2018-07-06T04:04:58.781Z,29
2018-07-06T04:07:55.580Z,29
2018-07-06T04:10:52.620Z,29
2018-07-06T04:13:49.536Z,29
2018-07-06T04:16:46.584Z,29
2018-07-06T04:19:43.547Z,28.9
2018-07-06T04:22:40.592Z,28.9
2018-07-06T04:25:37.561Z,29
2018-07-06T04:28:34.766Z,28.9
2018-07-06T04:31:31.770Z,28.9
2018-07-06T04:34:28.644Z,28.9
2018-07-06T04:37:25.762Z,28.9
2018-07-06T04:40:22.575Z,28.8
2018-07-06T04:49:13.759Z,28.8
2018-07-06T04:55:07.708Z,28.9
2018-07-06T04:58:04.651Z,28.8
2018-07-06T05:01:01.771Z,28.8
2018-07-06T05:03:58.613Z,28.8
2018-07-06T05:09:52.665Z,28.8
2018-07-06T05:12:49.693Z,28.8
2018-07-06T05:15:46.832Z,28.8
2018-07-06T05:21:40.719Z,28.8
2018-07-06T05:24:37.684Z,28.8
2018-07-06T05:27:34.845Z,28.8
2018-07-06T05:30:31.713Z,28.8
2018-07-06T05:33:28.704Z,28.8
2018-07-06T05:36:25.661Z,28.8
2018-07-06T05:42:19.800Z,28.8
2018-07-06T05:45:16.662Z,28.8
2018-07-06T05:48:13.794Z,28.8
2018-07-06T05:51:10.733Z,28.8
2018-07-06T05:54:07.763Z,28.8
2018-07-06T05:57:04.726Z,28.8
2018-07-06T06:00:01.814Z,28.7
2018-07-06T06:02:58.694Z,28.7
2018-07-06T06:05:55.981Z,28.7
2018-07-06T06:11:49.851Z,28.8
2018-07-06T06:14:46.832Z,28.8
2018-07-06T06:17:43.886Z,28.8
2018-07-06T06:20:40.721Z,28.8
2018-07-06T06:23:37.757Z,28.7
2018-07-06T06:26:34.732Z,28.7
2018-07-06T06:29:31.814Z,28.7
2018-07-06T06:32:28.737Z,28.7
2018-07-06T06:38:22.821Z,28.7
2018-07-06T06:41:19.802Z,28.7
2018-07-06T06:44:16.826Z,28.6
2018-07-06T06:47:13.746Z,28.6
2018-07-06T06:50:10.860Z,28.7
2018-07-06T06:59:01.941Z,28.9
2018-07-06T07:01:58.832Z,28.8
2018-07-06T07:04:55.877Z,28.7
2018-07-06T07:07:52.831Z,28.6
2018-07-06T07:10:50.015Z,28.6
2018-07-06T07:13:46.846Z,28.6
2018-07-06T07:19:40.835Z,28.6
2018-07-06T07:22:37.800Z,28.6
2018-07-06T07:25:35.080Z,28.6
2018-07-06T07:28:31.846Z,28.6
2018-07-06T07:31:28.900Z,28.6
2018-07-06T07:34:25.887Z,28.7
2018-07-06T07:37:23.081Z,28.8
2018-07-06T07:40:19.824Z,28.6
2018-07-06T07:43:17.108Z,28.5
2018-07-06T07:46:13.885Z,28.5
2018-07-06T07:49:11.068Z,28.4
2018-07-06T07:52:07.844Z,28.4
2018-07-06T07:55:05.015Z,28.5
2018-07-06T07:58:01.844Z,28.5
2018-07-06T08:00:59.009Z,28.5
2018-07-06T08:03:55.876Z,28.5
2018-07-06T08:06:53.080Z,28.6
2018-07-06T08:09:49.860Z,28.6
2018-07-06T08:12:47.163Z,28.7
2018-07-06T08:18:40.987Z,28.8
2018-07-06T08:21:37.934Z,28.8
2018-07-06T08:24:35.164Z,28.7
2018-07-06T08:27:31.960Z,28.7
2018-07-06T08:30:29.135Z,28.6
2018-07-06T08:36:23.113Z,28.7
2018-07-06T08:39:19.926Z,28.7
2018-07-06T08:42:17.150Z,28.7
2018-07-06T08:45:13.920Z,28.7
2018-07-06T08:48:11.090Z,28.7
2018-07-06T08:51:07.923Z,28.7
2018-07-06T08:54:05.961Z,28.7
2018-07-06T09:05:53.181Z,28.7
2018-07-06T09:14:44.003Z,28.7
2018-07-06T09:17:40.964Z,28.7
2018-07-06T09:20:38.166Z,28.7
2018-07-06T09:26:32.259Z,28.7
2018-07-06T09:29:29.046Z,28.7
2018-07-06T09:38:20.214Z,28.7
2018-07-06T09:41:17.005Z,28.7
2018-07-06T09:44:14.247Z,28.7
2018-07-06T09:50:08.306Z,28.6
2018-07-06T09:53:05.059Z,28.6
2018-07-06T10:01:56.077Z,28.7
2018-07-06T10:07:50.230Z,28.7
2018-07-06T10:13:44.301Z,28.7
2018-07-06T10:16:41.093Z,28.7
2018-07-06T10:22:35.298Z,28.7
2018-07-06T10:25:32.109Z,28.7
2018-07-06T10:28:29.215Z,28.7
2018-07-06T10:31:26.131Z,28.6
2018-07-06T10:34:23.296Z,28.6
2018-07-06T10:37:20.075Z,28.7
2018-07-06T10:40:17.341Z,28.6
2018-07-06T10:43:14.134Z,28.6
2018-07-06T10:46:11.346Z,28.6
2018-07-06T10:49:08.133Z,28.6
2018-07-06T10:52:05.304Z,28.6
2018-07-06T10:55:02.096Z,28.6
2018-07-06T10:57:59.297Z,28.6
2018-07-06T11:00:56.112Z,28.6
2018-07-06T11:03:53.384Z,28.6
2018-07-06T11:06:50.186Z,28.6
2018-07-06T11:12:44.422Z,28.6
2018-07-06T11:18:38.245Z,28.6
2018-07-06T11:21:35.160Z,28.6
2018-07-06T11:42:14.451Z,28.6
2018-07-06T11:45:11.252Z,28.6
2018-07-06T11:48:08.260Z,28.6
2018-07-06T11:51:05.180Z,28.5
2018-07-06T11:56:59.387Z,28.6
2018-07-06T11:59:56.203Z,28.6
2018-07-06T12:02:53.484Z,28.6
2018-07-06T12:05:50.259Z,28.6
2018-07-06T12:11:44.448Z,28.6
2018-07-06T12:14:41.284Z,28.6
2018-07-06T12:17:38.521Z,28.6
2018-07-06T12:20:35.230Z,28.6
2018-07-06T12:23:32.327Z,28.6
2018-07-06T12:26:29.294Z,28.6
2018-07-06T12:35:20.470Z,28.6
2018-07-06T12:41:14.570Z,28.6
2018-07-06T12:44:11.259Z,28.6
2018-07-06T12:47:08.521Z,28.6
2018-07-06T12:50:05.331Z,28.6
2018-07-06T12:55:59.483Z,28.6
2018-07-06T12:58:56.332Z,28.6
2018-07-06T13:04:50.523Z,28.6
2018-07-06T13:10:44.550Z,28.6
2018-07-06T13:13:41.386Z,28.6
2018-07-06T13:22:32.509Z,28.6
2018-07-06T13:28:26.530Z,28.6
2018-07-06T13:31:23.349Z,28.6
2018-07-06T13:40:14.395Z,28.6
2018-07-06T13:57:56.537Z,28.4
2018-07-06T14:00:53.406Z,28.4
2018-07-06T14:09:44.538Z,28.3
2018-07-06T15:44:08.745Z,27.8
2018-07-06T15:50:02.756Z,27.8
2018-07-06T15:52:59.567Z,27.8
2018-07-06T15:58:53.785Z,27.7
2018-07-06T16:01:50.548Z,27.6
2018-07-06T16:04:47.773Z,27.5
2018-07-06T16:07:44.535Z,27.4
2018-07-06T16:10:41.754Z,27.3
2018-07-06T16:16:35.794Z,27.2
2018-07-06T16:19:32.644Z,27.2
2018-07-06T16:22:29.738Z,27.2
2018-07-06T16:25:26.573Z,27.2
2018-07-06T16:28:23.792Z,27.1
2018-07-06T16:31:20.587Z,27
2018-07-06T16:34:17.621Z,26.9
2018-07-06T16:37:14.583Z,26.8
2018-07-06T16:40:11.808Z,26.8
2018-07-06T16:43:08.665Z,26.8
2018-07-06T16:46:05.826Z,26.8
2018-07-06T16:49:02.598Z,26.8
2018-07-06T16:51:59.836Z,26.8
2018-07-06T16:54:56.669Z,26.8
2018-07-06T16:57:53.724Z,26.8
2018-07-06T17:09:41.847Z,26.8
2018-07-06T17:12:38.694Z,26.8
2018-07-06T17:15:35.920Z,26.8
2018-07-06T17:18:32.694Z,26.8
2018-07-06T17:21:29.926Z,26.8
2018-07-06T17:24:26.655Z,26.8
2018-07-06T17:27:23.853Z,26.8
2018-07-06T17:30:20.747Z,26.8
2018-07-06T17:33:17.949Z,26.8
2018-07-06T17:36:14.665Z,26.8
2018-07-06T17:45:05.787Z,26.8
2018-07-06T17:53:56.898Z,26.8
2018-07-06T17:56:53.707Z,26.8
2018-07-06T17:59:50.908Z,26.9
2018-07-06T18:02:47.771Z,26.9
2018-07-06T18:05:44.916Z,26.9
2018-07-06T18:08:41.782Z,26.9
2018-07-06T18:11:38.963Z,26.8
2018-07-06T18:14:35.785Z,26.9
2018-07-06T18:17:32.814Z,26.8
2018-07-06T18:23:26.986Z,26.8
2018-07-06T18:26:23.804Z,26.8
2018-07-06T18:29:20.989Z,26.8
2018-07-06T18:32:17.801Z,26.9
2018-07-06T18:35:15.027Z,26.9
2018-07-06T18:38:11.760Z,27
2018-07-06T18:44:05.988Z,27
2018-07-06T18:47:02.767Z,27
2018-07-06T18:49:59.969Z,27
2018-07-06T18:52:56.771Z,27.1
2018-07-06T18:55:53.974Z,27
2018-07-06T18:58:50.786Z,27
2018-07-06T19:01:48.070Z,27
2018-07-06T19:04:44.851Z,27.1
2018-07-06T19:07:41.858Z,27.1
2018-07-06T19:10:38.871Z,27
2018-07-06T19:13:35.902Z,27
2018-07-06T19:16:32.818Z,27.1
2018-07-06T19:19:30.008Z,27.1
2018-07-06T19:28:21.315Z,27.1
2018-07-06T19:34:15.003Z,27
2018-07-06T19:37:11.871Z,27
2018-07-06T19:40:09.040Z,27
2018-07-06T19:43:06.255Z,27
2018-07-06T19:46:02.899Z,27
2018-07-06T19:48:59.925Z,27
2018-07-06T19:51:56.896Z,27.1
2018-07-06T19:54:53.939Z,27.1
2018-07-06T19:57:51.701Z,27.1
2018-07-06T20:00:47.926Z,27.1
2018-07-06T20:03:45.093Z,27.2
2018-07-06T20:06:41.934Z,27.2
2018-07-06T20:12:36.486Z,27.2
2018-07-06T20:18:30.089Z,27.1
2018-07-06T20:21:26.897Z,27.1
2018-07-06T20:24:24.087Z,27.1
2018-07-06T20:27:20.893Z,27.1
2018-07-06T20:30:18.127Z,27.1
2018-07-06T20:39:09.181Z,27.1
2018-07-06T20:42:05.972Z,27.1
2018-07-06T20:45:03.166Z,27.1
2018-07-06T20:47:59.991Z,27.1
2018-07-06T20:50:57.159Z,27.1
2018-07-06T20:59:48.175Z,27
2018-07-06T21:02:45.044Z,27
2018-07-06T21:05:42.217Z,27
2018-07-06T21:08:39.426Z,27
2018-07-06T21:11:36.246Z,27
2018-07-06T21:14:33.041Z,27
2018-07-06T21:17:30.208Z,27
2018-07-06T21:23:24.253Z,27
2018-07-06T21:32:15.291Z,27
2018-07-06T21:44:03.288Z,27.1
2018-07-06T21:49:57.050Z,27.1
2018-07-06T21:58:48.082Z,27.2
2018-07-06T22:01:45.061Z,27.2
2018-07-06T22:07:39.185Z,27.2
2018-07-06T22:28:18.261Z,27.2
2018-07-06T22:43:03.323Z,27.3
2018-07-06T22:57:48.271Z,27.2
2018-07-06T23:00:45.122Z,27.2
2018-07-06T23:15:30.372Z,27.3
2018-07-06T23:21:24.303Z,27.4
2018-07-06T23:27:18.438Z,27.4
2018-07-06T23:30:15.157Z,27.4
2018-07-06T23:36:09.388Z,27.5
2018-07-06T23:45:00.407Z,27.6
2018-07-06T23:47:57.235Z,27.6
2018-07-06T23:53:51.348Z,27.7
2018-07-06T23:56:48.191Z,27.6
2018-07-06T23:59:45.362Z,27.3
